Time;durP1;ratioP1;P1;durP2;ratioP2;P2;SDS_P1;SDS_P2;PMS_P1;PMS_P2;Temp;Humidity;BMP_temperature;BMP_pressure;BME280_temperature;BME280_humidity;BME280_pressure;Samples;Min_cycle;Max_cycle;Signal;HPM_P1;HPM_P2
2022/03/26 00:00:51;;;;;;;20.70;14.23;;;4.50;99.90;;;;;;7375235;19;20398;-71
2022/03/26 00:03:17;;;;;;;15.50;12.23;;;4.50;99.90;;;;;;7372312;19;21005;-71
2022/03/26 00:05:43;;;;;;;18.30;13.02;;;4.50;99.90;;;;;;7374732;19;20550;-71
2022/03/26 00:08:09;;;;;;;15.63;13.65;;;4.40;99.90;;;;;;7372538;19;20341;-71
2022/03/26 00:10:35;;;;;;;14.13;12.45;;;4.40;99.90;;;;;;7374910;19;20329;-71
2022/03/26 00:13:01;;;;;;;17.00;12.98;;;4.40;99.90;;;;;;7373421;19;21171;-71
2022/03/26 00:15:27;;;;;;;16.77;11.70;;;4.40;99.90;;;;;;7355021;19;20328;-71
2022/03/26 00:17:53;;;;;;;14.38;11.60;;;4.30;99.90;;;;;;7370240;19;20315;-71
2022/03/26 00:20:19;;;;;;;14.97;11.50;;;4.30;99.90;;;;;;7373721;19;20702;-71
2022/03/26 00:22:45;;;;;;;14.60;11.73;;;4.30;99.90;;;;;;7373142;19;21014;-71
2022/03/26 00:25:13;;;;;;;17.50;11.95;;;4.20;99.90;;;;;;7374008;19;20338;-71
2022/03/26 00:27:39;;;;;;;17.13;12.57;;;4.20;99.90;;;;;;7372326;19;20333;-71
2022/03/26 00:30:06;;;;;;;20.58;12.40;;;4.20;99.90;;;;;;7370841;19;20341;-72
2022/03/26 00:32:31;;;;;;;16.63;12.73;;;4.10;99.90;;;;;;7374578;19;20317;-71
2022/03/26 00:34:57;;;;;;;16.10;12.30;;;4.10;99.90;;;;;;7356667;19;20309;-71
2022/03/26 00:37:23;;;;;;;18.43;13.20;;;4.10;99.90;;;;;;7375364;19;20356;-71
2022/03/26 00:39:50;;;;;;;17.23;12.80;;;4.10;99.90;;;;;;7373085;19;20408;-71
2022/03/26 00:42:15;;;;;;;18.85;13.30;;;4.10;99.90;;;;;;7371804;19;20361;-71
2022/03/26 00:44:41;;;;;;;17.77;13.10;;;4.10;99.90;;;;;;7377170;19;20332;-71
2022/03/26 00:47:07;;;;;;;22.33;14.20;;;4.00;99.90;;;;;;7376706;19;20893;-71
2022/03/26 00:49:33;;;;;;;17.40;13.65;;;4.00;99.90;;;;;;7374801;19;20475;-71
2022/03/26 00:51:58;;;;;;;15.60;12.57;;;4.00;99.90;;;;;;7375977;19;20333;-71
2022/03/26 00:54:24;;;;;;;18.33;13.87;;;3.90;99.90;;;;;;7373011;19;20356;-71
2022/03/26 00:56:50;;;;;;;19.27;12.90;;;3.90;99.90;;;;;;7375949;19;20869;-72
2022/03/26 00:59:16;;;;;;;18.17;14.40;;;3.80;99.90;;;;;;7377503;19;20360;-71
2022/03/26 01:01:41;;;;;;;23.05;15.00;;;3.80;99.90;;;;;;7374066;19;20337;-71
2022/03/26 01:04:08;;;;;;;18.43;14.43;;;3.80;99.90;;;;;;7378629;19;20440;-71
2022/03/26 01:06:34;;;;;;;16.33;13.43;;;3.70;99.90;;;;;;7378764;19;20312;-71
2022/03/26 01:08:59;;;;;;;16.73;12.57;;;3.70;99.90;;;;;;7372688;19;20798;-71
2022/03/26 01:11:25;;;;;;;17.33;12.77;;;3.60;99.90;;;;;;7377411;19;20384;-71
2022/03/26 01:13:53;;;;;;;21.48;12.50;;;3.60;99.90;;;;;;7375750;19;20996;-71
2022/03/26 01:16:19;;;;;;;17.30;13.05;;;3.80;99.90;;;;;;7372434;19;20339;-71
2022/03/26 01:18:44;;;;;;;16.10;12.80;;;3.60;99.90;;;;;;7375313;19;20363;-71
2022/03/26 01:21:10;;;;;;;15.55;12.82;;;3.60;99.90;;;;;;7376153;19;20343;-71
2022/03/26 01:23:36;;;;;;;17.40;13.50;;;3.60;99.90;;;;;;7376132;19;20324;-72
2022/03/26 01:26:03;;;;;;;16.00;12.03;;;3.60;99.90;;;;;;7377194;19;20308;-71
2022/03/26 01:28:30;;;;;;;17.25;13.18;;;3.60;99.90;;;;;;7368954;19;20679;-71
2022/03/26 01:31:02;;;;;;;18.40;12.82;;;3.50;99.90;;;;;;7377359;19;20960;-71
2022/03/26 01:33:28;;;;;;;14.80;11.87;;;3.60;99.90;;;;;;7273732;19;2004514;-71
2022/03/26 01:35:54;;;;;;;15.00;11.80;;;3.50;99.90;;;;;;7376778;19;20330;-72
2022/03/26 01:38:20;;;;;;;19.70;13.80;;;3.50;99.90;;;;;;7371476;19;20399;-71
2022/03/26 01:40:45;;;;;;;17.02;13.10;;;3.50;99.90;;;;;;7376325;19;20319;-71
2022/03/26 01:43:11;;;;;;;16.75;12.65;;;3.50;99.90;;;;;;7377419;19;20331;-72
2022/03/26 01:45:37;;;;;;;16.02;11.88;;;3.50;99.90;;;;;;7385349;19;20327;-71
2022/03/26 01:48:03;;;;;;;18.07;12.00;;;3.50;99.90;;;;;;7381296;19;20337;-71
2022/03/26 01:50:29;;;;;;;14.60;11.07;;;3.50;99.90;;;;;;7379725;19;20317;-71
2022/03/26 01:52:55;;;;;;;16.65;12.05;;;3.50;99.90;;;;;;7383363;19;20364;-71
2022/03/26 01:55:21;;;;;;;15.60;11.38;;;3.50;99.90;;;;;;7382928;19;20349;-71
2022/03/26 01:57:48;;;;;;;15.57;12.77;;;3.50;99.90;;;;;;7378118;19;20887;-71
2022/03/26 02:00:14;;;;;;;17.63;12.30;;;3.40;99.90;;;;;;7383103;19;20304;-71
2022/03/26 02:02:43;;;;;;;16.88;12.07;;;3.40;99.90;;;;;;7384234;19;20316;-72
2022/03/26 02:05:13;;;;;;;16.65;11.95;;;3.30;99.90;;;;;;7379625;19;20711;-71
2022/03/26 02:07:39;;;;;;;15.95;11.93;;;3.30;99.90;;;;;;7380467;19;20319;-71
2022/03/26 02:10:08;;;;;;;14.02;11.00;;;3.30;99.90;;;;;;7382112;19;20738;-71
2022/03/26 02:12:33;;;;;;;16.45;11.45;;;3.30;99.90;;;;;;7380354;19;20344;-71
2022/03/26 02:14:59;;;;;;;15.27;11.77;;;3.40;99.90;;;;;;7383154;19;20666;-71
2022/03/26 02:17:25;;;;;;;13.90;11.13;;;3.30;99.90;;;;;;7384468;19;20388;-71
2022/03/26 02:19:54;;;;;;;14.48;10.85;;;3.30;99.90;;;;;;7381263;19;20372;-72
2022/03/26 02:22:21;;;;;;;16.38;12.65;;;3.30;99.90;;;;;;7381356;19;20321;-71
2022/03/26 02:24:47;;;;;;;13.27;10.90;;;3.20;99.90;;;;;;7380065;19;20320;-71
2022/03/26 02:27:13;;;;;;;15.55;12.27;;;3.10;99.90;;;;;;7380799;19;20352;-71
2022/03/26 02:29:38;;;;;;;15.10;11.55;;;3.10;99.90;;;;;;7382607;19;20400;-71
2022/03/26 02:32:05;;;;;;;18.50;13.73;;;3.10;99.90;;;;;;7379667;19;20336;-71
2022/03/26 02:34:31;;;;;;;19.35;14.25;;;3.10;99.90;;;;;;7378914;19;20336;-72
2022/03/26 02:36:57;;;;;;;15.07;11.80;;;3.10;99.90;;;;;;7380539;19;20331;-71
2022/03/26 02:39:23;;;;;;;19.67;11.75;;;3.00;99.90;;;;;;7379963;19;20373;-71
2022/03/26 02:41:48;;;;;;;14.53;11.07;;;2.90;99.90;;;;;;7380455;19;20301;-71
2022/03/26 02:44:14;;;;;;;14.70;11.13;;;3.00;99.90;;;;;;7380605;19;21007;-71
2022/03/26 02:46:40;;;;;;;14.35;10.98;;;3.00;99.90;;;;;;7382133;19;20320;-71
2022/03/26 02:49:05;;;;;;;14.43;10.97;;;3.00;99.90;;;;;;7383212;19;20359;-71
2022/03/26 02:51:31;;;;;;;14.55;11.20;;;3.10;99.90;;;;;;7383202;19;20837;-71
2022/03/26 02:53:57;;;;;;;14.90;10.98;;;3.00;99.90;;;;;;7378603;19;20324;-71
2022/03/26 02:56:22;;;;;;;13.53;11.33;;;3.00;99.90;;;;;;7379694;19;20348;-71
2022/03/26 02:58:48;;;;;;;17.17;12.95;;;3.00;99.90;;;;;;7376048;19;20342;-71
2022/03/26 03:01:14;;;;;;;19.15;12.65;;;2.90;99.90;;;;;;7378606;19;20363;-71
2022/03/26 03:03:40;;;;;;;15.23;10.47;;;2.90;99.90;;;;;;7380750;19;20374;-71
2022/03/26 03:06:06;;;;;;;17.53;12.70;;;2.90;99.90;;;;;;7381683;19;20352;-71
2022/03/26 03:08:32;;;;;;;14.70;10.52;;;2.90;99.90;;;;;;7379681;19;20397;-70
2022/03/26 03:10:58;;;;;;;15.82;11.63;;;2.90;99.90;;;;;;7382521;19;20308;-71
2022/03/26 03:13:24;;;;;;;15.33;10.73;;;2.90;99.90;;;;;;7379764;19;20396;-71
2022/03/26 03:15:50;;;;;;;16.83;11.83;;;2.90;99.90;;;;;;7380862;19;20320;-70
2022/03/26 03:18:17;;;;;;;14.48;10.55;;;2.90;99.90;;;;;;7380561;19;20368;-71
2022/03/26 03:20:42;;;;;;;15.35;11.27;;;2.80;99.90;;;;;;7382653;19;21184;-71
2022/03/26 03:23:08;;;;;;;15.15;11.35;;;2.80;99.90;;;;;;7381364;19;20312;-71
2022/03/26 03:25:33;;;;;;;12.33;10.30;;;2.70;99.90;;;;;;7380782;19;20891;-71
2022/03/26 03:27:59;;;;;;;14.10;11.07;;;2.60;99.90;;;;;;7381363;19;20313;-71
2022/03/26 03:30:25;;;;;;;15.53;11.50;;;2.60;99.90;;;;;;7379434;19;20722;-71
2022/03/26 03:32:51;;;;;;;17.95;12.55;;;2.50;99.90;;;;;;7379901;19;20324;-71
2022/03/26 03:35:17;;;;;;;13.53;10.73;;;2.60;99.90;;;;;;7383930;19;20320;-70
2022/03/26 03:37:43;;;;;;;13.30;11.23;;;2.50;99.90;;;;;;7378625;19;20843;-71
2022/03/26 03:40:09;;;;;;;14.32;10.85;;;2.50;99.90;;;;;;7380450;19;20347;-72
2022/03/26 03:42:35;;;;;;;12.60;10.40;;;2.50;99.90;;;;;;7377751;19;21325;-71
2022/03/26 03:45:01;;;;;;;12.02;9.98;;;2.50;99.90;;;;;;7378543;19;20473;-71
2022/03/26 03:47:27;;;;;;;12.88;10.70;;;2.40;99.90;;;;;;7379546;19;20449;-72
2022/03/26 03:49:52;;;;;;;12.25;10.57;;;2.40;99.90;;;;;;7377941;19;20893;-71
2022/03/26 03:52:18;;;;;;;12.00;9.60;;;2.30;99.90;;;;;;7376709;19;21004;-71
2022/03/26 03:54:43;;;;;;;12.82;10.73;;;2.30;99.90;;;;;;7379606;19;20305;-71
2022/03/26 03:57:09;;;;;;;16.43;9.80;;;2.30;99.90;;;;;;7377661;19;20325;-71
2022/03/26 03:59:35;;;;;;;16.58;10.25;;;2.30;99.90;;;;;;7378705;19;20341;-71
2022/03/26 04:02:01;;;;;;;13.63;10.33;;;2.30;99.90;;;;;;7377066;19;20320;-71
2022/03/26 04:04:26;;;;;;;15.88;11.57;;;2.30;99.90;;;;;;7376160;19;20344;-71
2022/03/26 04:06:52;;;;;;;12.77;11.27;;;2.30;99.90;;;;;;7376468;19;20332;-71
2022/03/26 04:09:18;;;;;;;15.57;11.23;;;2.20;99.90;;;;;;7376838;19;20415;-71
2022/03/26 04:11:43;;;;;;;16.25;12.65;;;2.20;99.90;;;;;;7374858;19;20316;-71
2022/03/26 04:14:09;;;;;;;17.53;11.90;;;2.20;99.90;;;;;;7352600;19;20344;-71
2022/03/26 04:16:35;;;;;;;16.43;12.37;;;2.20;99.90;;;;;;7376410;19;20407;-71
2022/03/26 04:19:00;;;;;;;14.35;10.35;;;2.10;99.90;;;;;;7375059;19;20849;-72
2022/03/26 04:21:26;;;;;;;13.73;10.90;;;2.10;99.90;;;;;;7379943;19;20898;-71
2022/03/26 04:23:52;;;;;;;11.70;10.10;;;2.20;99.90;;;;;;7377207;19;20316;-71
2022/03/26 04:26:17;;;;;;;15.95;12.30;;;2.20;99.90;;;;;;7373127;19;20341;-72
2022/03/26 04:28:43;;;;;;;14.70;10.57;;;2.20;99.90;;;;;;7374940;19;20305;-71
2022/03/26 04:31:09;;;;;;;14.40;10.88;;;2.20;99.90;;;;;;7376526;19;20408;-71
2022/03/26 04:33:35;;;;;;;13.95;9.68;;;2.10;99.90;;;;;;7378177;19;20720;-71
2022/03/26 04:36:00;;;;;;;11.27;9.68;;;2.10;99.90;;;;;;7381543;19;20919;-71
2022/03/26 04:38:26;;;;;;;16.07;12.10;;;2.10;99.90;;;;;;7377415;19;20336;-71
2022/03/26 04:40:52;;;;;;;11.73;10.02;;;2.10;99.90;;;;;;7377495;19;20309;-71
2022/03/26 04:43:18;;;;;;;13.60;10.77;;;2.10;99.90;;;;;;7376087;19;20467;-71
2022/03/26 04:45:44;;;;;;;13.60;9.70;;;2.00;99.90;;;;;;7378206;19;20305;-72
2022/03/26 04:48:10;;;;;;;12.90;10.30;;;2.00;99.90;;;;;;7375620;19;20313;-71
2022/03/26 04:50:36;;;;;;;13.20;10.23;;;2.00;99.90;;;;;;7377698;19;20744;-71
2022/03/26 04:53:02;;;;;;;17.13;12.20;;;2.00;99.90;;;;;;7375802;19;20700;-71
2022/03/26 04:55:27;;;;;;;14.23;10.25;;;2.00;99.90;;;;;;7377331;19;20325;-71
2022/03/26 04:57:53;;;;;;;14.13;10.40;;;2.00;99.90;;;;;;7375559;19;20325;-72
2022/03/26 05:00:19;;;;;;;11.93;9.77;;;2.00;99.90;;;;;;7376113;19;20297;-71
2022/03/26 05:02:45;;;;;;;15.80;11.10;;;2.00;99.90;;;;;;7377345;19;20316;-71
2022/03/26 05:05:11;;;;;;;14.57;10.37;;;2.00;99.90;;;;;;7377095;19;20301;-71
2022/03/26 05:07:45;;;;;;;13.02;10.65;;;2.00;99.90;;;;;;7376309;19;20321;-71
2022/03/26 05:10:18;;;;;;;18.08;13.93;;;2.00;99.90;;;;;;7361547;19;20349;-71
2022/03/26 05:12:44;;;;;;;17.85;12.95;;;1.90;99.90;;;;;;7376008;19;20316;-71
2022/03/26 05:15:10;;;;;;;17.77;13.35;;;1.90;99.90;;;;;;7376116;19;20309;-72
2022/03/26 05:17:37;;;;;;;21.08;12.68;;;1.90;99.90;;;;;;7378645;19;20333;-71
2022/03/26 05:20:03;;;;;;;14.63;10.75;;;2.00;99.90;;;;;;7383271;19;20399;-72
2022/03/26 05:22:29;;;;;;;18.75;12.43;;;2.00;99.90;;;;;;7382109;19;20323;-71
2022/03/26 05:24:55;;;;;;;13.05;10.70;;;2.00;99.90;;;;;;7384842;19;20328;-71
2022/03/26 05:27:20;;;;;;;12.87;10.17;;;2.10;99.90;;;;;;7383543;19;20349;-71
2022/03/26 05:29:46;;;;;;;14.97;10.23;;;2.10;99.90;;;;;;7383815;19;20328;-71
2022/03/26 05:32:12;;;;;;;13.27;10.65;;;2.10;99.90;;;;;;7381890;19;20325;-71
2022/03/26 05:34:39;;;;;;;16.38;11.82;;;2.10;99.90;;;;;;7384073;19;20657;-71
2022/03/26 05:37:05;;;;;;;17.73;12.52;;;2.20;99.90;;;;;;7382802;19;20319;-71
2022/03/26 05:39:31;;;;;;;16.93;12.63;;;2.20;99.90;;;;;;7380817;19;20336;-71
2022/03/26 05:41:57;;;;;;;20.73;12.77;;;2.30;99.90;;;;;;7383080;19;20316;-70
2022/03/26 05:44:23;;;;;;;19.52;13.88;;;2.40;99.90;;;;;;7381349;19;20315;-70
2022/03/26 05:46:48;;;;;;;20.03;14.83;;;2.50;99.90;;;;;;7383059;19;21132;-71
2022/03/26 05:49:14;;;;;;;17.83;13.45;;;2.70;99.90;;;;;;7379785;19;20340;-72
2022/03/26 05:51:40;;;;;;;18.33;13.57;;;2.70;99.90;;;;;;7376543;19;20320;-70
2022/03/26 05:54:05;;;;;;;20.67;13.60;;;2.80;99.90;;;;;;7382621;19;20328;-70
2022/03/26 05:56:36;;;;;;;16.13;13.48;;;2.90;99.90;;;;;;7380894;19;20324;-70
2022/03/26 05:59:06;;;;;;;18.00;14.57;;;3.00;99.90;;;;;;7379454;19;20320;-70
2022/03/26 06:01:32;;;;;;;19.45;14.63;;;3.20;99.90;;;;;;7381309;19;20411;-70
2022/03/26 06:03:58;;;;;;;21.23;14.90;;;3.40;99.90;;;;;;7378832;19;20892;-70
2022/03/26 06:06:23;;;;;;;20.97;15.43;;;3.50;99.90;;;;;;7381000;19;20792;-72
2022/03/26 06:08:49;;;;;;;22.75;15.48;;;3.60;99.90;;;;;;7378615;19;20808;-71
2022/03/26 06:11:14;;;;;;;21.47;15.20;;;3.70;99.90;;;;;;7384382;19;20881;-71
2022/03/26 06:13:40;;;;;;;22.95;15.65;;;3.80;99.90;;;;;;7381703;19;20329;-71
2022/03/26 06:16:06;;;;;;;23.00;15.73;;;4.00;99.90;;;;;;7383647;19;20329;-71
2022/03/26 06:18:31;;;;;;;19.37;14.97;;;4.00;99.90;;;;;;7381441;19;20335;-72
2022/03/26 06:20:57;;;;;;;22.83;15.30;;;4.20;99.90;;;;;;7381178;19;20432;-71
2022/03/26 06:23:23;;;;;;;19.60;15.20;;;4.30;99.90;;;;;;7381475;19;20358;-71
2022/03/26 06:25:49;;;;;;;19.50;14.90;;;4.40;99.90;;;;;;7379162;19;21869;-71
2022/03/26 06:28:19;;;;;;;21.83;15.50;;;4.60;99.90;;;;;;7378898;19;20332;-71
2022/03/26 06:30:46;;;;;;;21.73;15.68;;;4.70;99.90;;;;;;7379184;19;20318;-73
2022/03/26 06:33:12;;;;;;;23.10;15.77;;;4.90;99.90;;;;;;7378953;19;20337;-72
2022/03/26 06:35:38;;;;;;;21.35;16.25;;;4.90;99.90;;;;;;7380082;19;20362;-71
2022/03/26 06:38:04;;;;;;;28.03;15.97;;;5.10;99.90;;;;;;7377915;19;20325;-72
2022/03/26 06:40:30;;;;;;;20.23;15.70;;;5.20;99.90;;;;;;7373536;19;20856;-73
2022/03/26 06:42:56;;;;;;;21.77;15.23;;;5.30;99.90;;;;;;7377350;19;20313;-72
2022/03/26 06:45:22;;;;;;;25.77;15.93;;;5.40;99.90;;;;;;7379136;19;20312;-72
2022/03/26 06:47:47;;;;;;;21.25;15.43;;;5.50;99.90;;;;;;7367759;19;22202;-72
2022/03/26 06:50:13;;;;;;;21.30;16.17;;;5.60;99.90;;;;;;7370714;19;20355;-72
2022/03/26 06:52:39;;;;;;;22.77;16.30;;;5.80;99.90;;;;;;7368688;19;20400;-72
2022/03/26 06:55:05;;;;;;;21.90;15.63;;;6.00;99.90;;;;;;7354000;19;20340;-72
2022/03/26 06:57:31;;;;;;;22.35;15.75;;;6.00;99.90;;;;;;7371214;19;20349;-72
2022/03/26 06:59:57;;;;;;;19.77;14.55;;;6.10;99.90;;;;;;7382460;19;20329;-73
2022/03/26 07:02:22;;;;;;;23.40;15.27;;;6.30;99.90;;;;;;7378548;19;20328;-72
2022/03/26 07:04:48;;;;;;;21.60;15.38;;;6.40;99.90;;;;;;7381812;19;20324;-72
2022/03/26 07:07:14;;;;;;;25.20;15.70;;;6.50;99.90;;;;;;7377319;19;20325;-72
2022/03/26 07:09:40;;;;;;;24.30;16.37;;;6.60;99.90;;;;;;7377746;19;20317;-72
2022/03/26 07:12:06;;;;;;;22.00;15.10;;;6.70;99.90;;;;;;7378767;19;20346;-72
2022/03/26 07:14:32;;;;;;;20.63;15.17;;;6.90;99.90;;;;;;7379626;19;20661;-72
2022/03/26 07:16:57;;;;;;;19.00;15.23;;;7.00;99.90;;;;;;7378552;19;20384;-73
2022/03/26 07:19:23;;;;;;;21.17;15.13;;;7.10;99.90;;;;;;7380797;19;20324;-72
2022/03/26 07:21:49;;;;;;;22.50;15.13;;;7.30;99.90;;;;;;7378289;19;20942;-72
2022/03/26 07:24:20;;;;;;;20.37;14.93;;;7.40;99.90;;;;;;7376228;19;20367;-72
2022/03/26 07:26:46;;;;;;;21.67;15.57;;;7.60;99.90;;;;;;7352222;19;20313;-72
2022/03/26 07:29:12;;;;;;;23.40;15.75;;;7.80;99.90;;;;;;7338483;19;20443;-72
2022/03/26 07:31:37;;;;;;;23.37;15.77;;;7.90;99.90;;;;;;7377738;19;20409;-73
2022/03/26 07:34:03;;;;;;;19.98;15.02;;;8.00;99.90;;;;;;7378438;19;20877;-72
2022/03/26 07:36:29;;;;;;;22.43;15.20;;;8.20;99.90;;;;;;7379662;19;20313;-72
2022/03/26 07:38:54;;;;;;;21.92;15.63;;;8.40;99.90;;;;;;7377133;19;20311;-72
2022/03/26 07:41:21;;;;;;;20.63;14.93;;;8.50;99.90;;;;;;7378104;19;20733;-72
2022/03/26 07:43:47;;;;;;;18.52;14.55;;;8.80;99.90;;;;;;7376962;19;20332;-72
2022/03/26 07:46:14;;;;;;;21.40;14.40;;;8.80;99.90;;;;;;7380020;19;20305;-72
2022/03/26 07:48:40;;;;;;;18.42;13.93;;;9.00;99.90;;;;;;7375783;19;20679;-73
2022/03/26 07:51:06;;;;;;;21.23;14.23;;;9.10;99.90;;;;;;7374787;19;20315;-73
2022/03/26 07:53:31;;;;;;;18.47;13.20;;;9.30;99.90;;;;;;7378955;19;20316;-72
2022/03/26 07:55:57;;;;;;;17.02;13.18;;;9.50;99.90;;;;;;7378844;19;20809;-73
2022/03/26 07:58:23;;;;;;;20.60;13.38;;;9.60;99.90;;;;;;7362260;19;20333;-72
2022/03/26 08:00:49;;;;;;;18.20;13.77;;;9.80;99.90;;;;;;7375858;19;20390;-72
2022/03/26 08:03:15;;;;;;;18.25;13.65;;;9.90;99.90;;;;;;7376424;19;20341;-72
2022/03/26 08:05:40;;;;;;;19.10;13.27;;;10.10;99.90;;;;;;7379528;19;20856;-73
2022/03/26 08:08:07;;;;;;;15.63;12.25;;;10.30;99.90;;;;;;7377830;19;20381;-73
2022/03/26 08:10:32;;;;;;;17.25;12.27;;;10.40;99.90;;;;;;7378075;19;20360;-72
2022/03/26 08:12:58;;;;;;;15.98;11.57;;;10.60;99.90;;;;;;7379528;19;20854;-73
2022/03/26 08:15:24;;;;;;;16.37;11.87;;;10.70;99.90;;;;;;7372114;19;20357;-73
2022/03/26 08:17:49;;;;;;;14.48;11.70;;;10.90;99.90;;;;;;7377602;19;20415;-73
2022/03/26 08:20:15;;;;;;;15.23;10.90;;;11.10;99.90;;;;;;7363760;19;20682;-72
2022/03/26 08:22:41;;;;;;;18.30;11.05;;;11.20;99.90;;;;;;7373161;19;20348;-72
2022/03/26 08:25:11;;;;;;;15.75;10.55;;;11.30;99.90;;;;;;7378122;19;20315;-72
2022/03/26 08:27:38;;;;;;;15.93;10.80;;;11.50;99.90;;;;;;7374808;19;20337;-72
2022/03/26 08:30:04;;;;;;;13.30;9.90;;;11.70;99.90;;;;;;7372969;19;20337;-72
2022/03/26 08:32:30;;;;;;;12.10;9.30;;;11.80;99.90;;;;;;7376232;19;20420;-72
2022/03/26 08:34:56;;;;;;;11.90;9.00;;;12.00;99.90;;;;;;7377982;19;20436;-73
2022/03/26 08:37:22;;;;;;;10.02;8.02;;;12.00;99.90;;;;;;7376761;19;20340;-76
2022/03/26 08:39:47;;;;;;;15.77;9.55;;;12.20;99.90;;;;;;7377040;19;20331;-73
2022/03/26 08:42:13;;;;;;;15.23;8.97;;;12.20;99.90;;;;;;7371015;19;20356;-73
2022/03/26 08:44:39;;;;;;;12.00;9.02;;;12.30;99.90;;;;;;7374482;19;20341;-72
2022/03/26 08:47:06;;;;;;;11.80;8.47;;;12.30;99.90;;;;;;7375514;19;20338;-73
2022/03/26 08:49:33;;;;;;;13.57;10.02;;;12.40;99.90;;;;;;7375573;19;20371;-73
2022/03/26 08:51:59;;;;;;;13.90;10.45;;;12.40;99.90;;;;;;7376010;19;20320;-73
2022/03/26 08:54:24;;;;;;;12.48;9.85;;;12.50;99.90;;;;;;7376815;19;20587;-72
2022/03/26 08:56:50;;;;;;;11.63;8.50;;;12.50;99.90;;;;;;7374681;19;20333;-73
2022/03/26 08:59:16;;;;;;;10.00;8.45;;;12.60;99.90;;;;;;7370665;19;20404;-72
2022/03/26 09:01:41;;;;;;;10.73;8.77;;;12.70;99.90;;;;;;7374950;19;21218;-73
2022/03/26 09:04:11;;;;;;;15.05;10.07;;;12.90;99.90;;;;;;7372416;19;20361;-73
2022/03/26 09:06:37;;;;;;;11.52;9.38;;;13.00;99.90;;;;;;7376483;19;20853;-73
2022/03/26 09:09:04;;;;;;;11.23;9.32;;;13.10;99.90;;;;;;7372627;19;20349;-73
2022/03/26 09:11:30;;;;;;;12.20;9.48;;;13.10;99.90;;;;;;7376350;19;20348;-74
2022/03/26 09:13:56;;;;;;;13.52;9.95;;;13.20;99.90;;;;;;7374767;19;20319;-72
2022/03/26 09:16:21;;;;;;;13.33;9.60;;;13.40;99.90;;;;;;7375967;19;20353;-75
2022/03/26 09:18:47;;;;;;;10.88;8.77;;;13.60;99.90;;;;;;7376329;19;20344;-74
2022/03/26 09:21:12;;;;;;;11.67;9.03;;;13.80;99.90;;;;;;7377953;19;20802;-74
2022/03/26 09:23:38;;;;;;;10.68;8.70;;;13.70;99.90;;;;;;7373520;19;20793;-74
2022/03/26 09:26:04;;;;;;;11.00;8.43;;;13.70;99.90;;;;;;7375037;19;20317;-73
2022/03/26 09:28:30;;;;;;;9.27;7.85;;;13.90;99.90;;;;;;7372638;19;20339;-70
2022/03/26 09:30:55;;;;;;;11.38;7.72;;;14.00;99.90;;;;;;7370524;19;20344;-71
2022/03/26 09:33:21;;;;;;;9.53;7.27;;;14.10;99.90;;;;;;7375364;19;20328;-71
2022/03/26 09:35:47;;;;;;;11.23;7.10;;;14.20;99.90;;;;;;7378184;19;20351;-70
2022/03/26 09:38:13;;;;;;;8.57;7.03;;;14.30;99.90;;;;;;7370504;19;20336;-70
2022/03/26 09:40:39;;;;;;;7.07;6.15;;;14.20;99.90;;;;;;7380023;19;20384;-70
2022/03/26 09:43:05;;;;;;;7.55;6.60;;;14.40;99.90;;;;;;7375156;19;20968;-69
2022/03/26 09:45:30;;;;;;;9.70;6.53;;;14.50;99.90;;;;;;7376664;19;20317;-70
2022/03/26 09:47:56;;;;;;;7.50;6.38;;;14.50;99.90;;;;;;7375573;19;20341;-69
2022/03/26 09:50:22;;;;;;;8.43;7.10;;;14.60;99.90;;;;;;7375579;19;20333;-70
2022/03/26 09:52:49;;;;;;;9.63;6.95;;;14.70;99.90;;;;;;7373329;19;20305;-70
2022/03/26 09:55:17;;;;;;;8.98;5.78;;;15.00;99.90;;;;;;7375859;19;20377;-70
2022/03/26 09:57:43;;;;;;;7.97;5.80;;;14.90;99.90;;;;;;7375902;19;20369;-70
2022/03/26 10:00:09;;;;;;;6.60;5.90;;;14.80;99.90;;;;;;7374808;19;20368;-71
2022/03/26 10:02:38;;;;;;;7.78;5.35;;;15.00;99.90;;;;;;7375949;19;20325;-73
2022/03/26 10:05:04;;;;;;;7.63;4.70;;;15.30;99.90;;;;;;7366712;19;20329;-72
2022/03/26 10:07:30;;;;;;;6.72;4.85;;;15.10;99.90;;;;;;7379098;19;21446;-71
2022/03/26 10:09:56;;;;;;;6.35;5.25;;;15.20;99.90;;;;;;7380168;19;20336;-70
2022/03/26 10:12:22;;;;;;;5.60;4.60;;;15.40;99.90;;;;;;7380716;19;20411;-70
2022/03/26 10:14:58;;;;;;;5.80;4.73;;;15.50;99.90;;;;;;7384215;19;20308;-70
2022/03/26 10:17:32;;;;;;;5.13;4.35;;;15.60;99.90;;;;;;7279098;19;2004554;-70
2022/03/26 10:20:01;;;;;;;5.95;4.18;;;15.70;99.90;;;;;;7380523;19;20313;-71
2022/03/26 10:22:40;;;;;;;6.57;4.07;;;15.70;99.90;;;;;;7378613;19;20328;-70
2022/03/26 10:25:11;;;;;;;4.35;3.92;;;15.80;99.90;;;;;;7377631;19;20369;-71
2022/03/26 10:27:44;;;;;;;5.65;4.22;;;16.10;99.90;;;;;;7378673;19;20776;-71
2022/03/26 10:30:11;;;;;;;4.55;3.72;;;16.10;99.90;;;;;;7377643;19;20324;-70
2022/03/26 10:32:41;;;;;;;5.35;4.57;;;16.30;99.90;;;;;;7379884;19;20312;-70
2022/03/26 10:35:20;;;;;;;5.00;4.03;;;16.40;99.90;;;;;;7358508;19;20347;-71
2022/03/26 10:37:46;;;;;;;5.85;4.38;;;16.50;99.90;;;;;;7376062;19;20372;-71
2022/03/26 10:40:16;;;;;;;6.70;4.43;;;16.30;99.20;;;;;;7381842;19;20336;-71
2022/03/26 10:42:42;;;;;;;4.25;3.72;;;16.80;99.50;;;;;;7383027;19;20292;-71
2022/03/26 10:45:13;;;;;;;4.40;3.80;;;16.60;98.50;;;;;;7383941;19;20340;-70
2022/03/26 10:47:39;;;;;;;6.07;4.43;;;17.00;97.50;;;;;;7381792;19;20345;-71
2022/03/26 10:50:05;;;;;;;5.55;3.92;;;17.10;97.30;;;;;;7380676;19;20375;-71
2022/03/26 10:52:31;;;;;;;4.72;4.03;;;17.10;97.40;;;;;;7379217;19;20863;-70
2022/03/26 10:54:57;;;;;;;4.40;4.00;;;17.40;97.80;;;;;;7381518;19;20417;-71
2022/03/26 10:57:24;;;;;;;4.47;3.87;;;17.40;96.80;;;;;;7380797;19;20305;-71
2022/03/26 10:59:50;;;;;;;3.70;3.40;;;17.60;95.50;;;;;;7377987;19;20332;-74
2022/03/26 11:02:15;;;;;;;4.00;3.60;;;17.50;96.10;;;;;;7378574;19;20333;-70
2022/03/26 11:04:41;;;;;;;4.90;3.97;;;17.80;95.00;;;;;;7382587;19;20293;-70
2022/03/26 11:07:07;;;;;;;4.53;4.10;;;17.90;95.00;;;;;;7379533;19;20316;-71
2022/03/26 11:09:33;;;;;;;4.32;3.78;;;18.20;95.00;;;;;;7380088;19;20308;-70
2022/03/26 11:11:58;;;;;;;4.93;3.27;;;17.80;93.90;;;;;;7381021;19;20812;-70
2022/03/26 11:14:37;;;;;;;3.37;3.07;;;17.70;92.80;;;;;;7378251;19;20404;-73
2022/03/26 11:17:28;;;;;;;3.00;2.70;;;17.50;92.40;;;;;;7389092;19;20331;-86
2022/03/26 11:20:14;;;;;;;3.38;3.08;;;17.60;93.10;;;;;;7296802;19;2004261;-84
2022/03/26 11:23:03;;;;;;;5.10;2.88;;;17.70;91.10;;;;;;7271660;19;2004500;-83
2022/03/26 11:25:36;;;;;;;3.58;2.70;;;17.40;90.80;;;;;;7400457;19;20349;-86
2022/03/26 11:28:30;;;;;;;3.78;2.65;;;17.80;91.70;;;;;;7395840;19;21334;-82
2022/03/26 11:30:59;;;;;;;3.17;2.92;;;17.90;90.80;;;;;;7292567;19;2004223;-83
2022/03/26 11:33:24;;;;;;;2.83;2.60;;;17.30;91.10;;;;;;7396424;19;20356;-82
2022/03/26 11:35:54;;;;;;;3.30;3.00;;;17.50;92.30;;;;;;7397586;19;20564;-85
2022/03/26 11:38:20;;;;;;;3.67;3.20;;;17.20;91.70;;;;;;7398387;19;20928;-85
2022/03/26 11:40:49;;;;;;;3.87;3.23;;;17.60;92.10;;;;;;7392665;19;20321;-85
2022/03/26 11:43:18;;;;;;;3.58;3.05;;;17.40;91.60;;;;;;7391260;19;20370;-85
2022/03/26 11:51:40;;;;;;;3.10;2.80;;;17.20;91.70;;;;;;7289841;19;2004416;-84
2022/03/26 11:54:08;;;;;;;3.35;3.05;;;16.80;91.80;;;;;;7396079;19;20354;-82
2022/03/26 11:56:33;;;;;;;6.30;3.25;;;16.80;92.30;;;;;;7371232;19;20455;-83
2022/03/26 11:59:25;;;;;;;2.50;2.30;;;17.20;93.30;;;;;;7390879;19;20317;-86
2022/03/26 12:01:51;;;;;;;2.80;2.42;;;17.20;93.10;;;;;;7395078;19;20320;-86
2022/03/26 12:04:26;;;;;;;3.70;2.83;;;17.50;93.40;;;;;;7397950;19;20345;-84
2022/03/26 12:06:55;;;;;;;3.63;2.60;;;17.40;92.30;;;;;;7377981;19;20366;-81
2022/03/26 12:09:37;;;;;;;3.20;2.90;;;17.40;92.60;;;;;;7392324;19;20860;-83
2022/03/26 12:12:07;;;;;;;3.47;3.08;;;17.40;92.20;;;;;;7388952;19;20337;-82
2022/03/26 12:15:05;;;;;;;3.50;3.17;;;17.60;92.10;;;;;;7388687;19;21175;-85
2022/03/26 12:17:47;;;;;;;4.28;3.42;;;17.40;92.10;;;;;;7391452;19;20345;-84
2022/03/26 12:20:20;;;;;;;3.27;2.97;;;17.40;92.20;;;;;;7386980;19;20399;-82
2022/03/26 12:22:51;;;;;;;2.88;2.58;;;17.30;92.90;;;;;;7388101;19;20325;-84
2022/03/26 12:25:17;;;;;;;5.05;2.28;;;17.30;94.20;;;;;;7395003;19;20374;-83
2022/03/26 12:27:45;;;;;;;2.83;2.47;;;17.50;94.70;;;;;;7395665;19;20659;-84
2022/03/26 12:30:13;;;;;;;6.32;2.75;;;17.10;94.40;;;;;;7386089;19;20317;-82
2022/03/26 12:32:39;;;;;;;4.00;3.30;;;17.30;95.10;;;;;;7387358;19;20707;-83
2022/03/26 12:35:06;;;;;;;3.42;2.40;;;17.30;94.20;;;;;;7392476;19;20328;-83
2022/03/26 12:37:33;;;;;;;2.42;2.03;;;17.10;95.50;;;;;;7392017;19;20332;-84
2022/03/26 12:39:59;;;;;;;2.22;2.00;;;17.00;97.30;;;;;;7390672;19;20708;-81
2022/03/26 12:42:24;;;;;;;2.55;2.28;;;16.80;98.70;;;;;;7390994;19;20345;-84